Bryant Army Heliport


Codes: PAFR/FRN
Name: Bryant Army Heliport
City: Fort Richardson(Anchorage)
Country: United States
Elevation: 378 ft.
Wikipedia:

Photos at Bryant Army Heliport


   Photos courtesy of SpottingLog. You can add your own sightings and photos by signing up for a free trial today.



No photos found.

Weather at Bryant Army Heliport


Time (UTC)DescriptionTempratureWindCloud coverageVisibilityPressureHumidity
25-Jun-2024 12:00Broken Clouds11°C2 mph, NW74%10000m1017hPa85%
25-Jun-2024 15:00Broken Clouds11°C2 mph, NW82%10000m1018hPa88%
25-Jun-2024 18:00Overcast Clouds12°C2 mph, NW91%10000m1018hPa89%
25-Jun-2024 21:00Overcast Clouds17°C4 mph, W88%10000m1019hPa70%
26-Jun-2024 00:00Broken Clouds18°C7 mph, S68%10000m1017hPa62%
26-Jun-2024 03:00Few Clouds18°C7 mph, SW23%10000m1017hPa62%
26-Jun-2024 06:00Few Clouds14°C7 mph, SW14%10000m1016hPa80%
26-Jun-2024 09:00Clear Sky11°C2 mph, S5%10000m1017hPa92%
26-Jun-2024 12:00Clear Sky10°C2 mph, S5%10000m1017hPa91%
26-Jun-2024 15:00Scattered Clouds12°C2 mph, SW44%10000m1016hPa83%
26-Jun-2024 18:00Broken Clouds14°C4 mph, SW52%10000m1015hPa74%
26-Jun-2024 21:00Scattered Clouds17°C7 mph, SW25%10000m1014hPa64%
27-Jun-2024 00:00Scattered Clouds18°C7 mph, SW31%10000m1014hPa61%
27-Jun-2024 03:00Few Clouds17°C7 mph, SW12%10000m1013hPa63%
27-Jun-2024 06:00Few Clouds13°C7 mph, SW15%10000m1013hPa70%
27-Jun-2024 09:00Overcast Clouds12°C4 mph, E87%10000m1014hPa74%
27-Jun-2024 12:00Overcast Clouds12°C2 mph, NE93%10000m1013hPa77%
27-Jun-2024 15:00Overcast Clouds13°C2 mph, SW95%10000m1013hPa75%
27-Jun-2024 18:00Overcast Clouds15°C2 mph, SW93%10000m1013hPa61%
27-Jun-2024 21:00Scattered Clouds17°C4 mph, S43%10000m1013hPa54%
28-Jun-2024 00:00Broken Clouds19°C7 mph, SW51%10000m1012hPa51%
28-Jun-2024 03:00Overcast Clouds17°C9 mph, SW100%10000m1012hPa59%
28-Jun-2024 06:00Overcast Clouds14°C4 mph, SW100%10000m1013hPa68%
28-Jun-2024 09:00Overcast Clouds12°C0 mph, SE100%10000m1014hPa72%
28-Jun-2024 12:00Overcast Clouds12°C2 mph, S100%10000m1014hPa75%
28-Jun-2024 15:00Overcast Clouds12°C2 mph, SW100%10000m1014hPa77%
28-Jun-2024 18:00Overcast Clouds13°C2 mph, SW100%10000m1014hPa69%
28-Jun-2024 21:00Overcast Clouds17°C4 mph, SW100%10000m1013hPa59%
29-Jun-2024 00:00Overcast Clouds18°C7 mph, SW100%10000m1012hPa56%
29-Jun-2024 03:00Overcast Clouds18°C7 mph, SW100%10000m1011hPa57%
29-Jun-2024 06:00Overcast Clouds13°C4 mph, SW100%10000m1011hPa75%
29-Jun-2024 09:00Overcast Clouds10°C2 mph, S100%10000m1012hPa85%
29-Jun-2024 12:00Overcast Clouds10°C0 mph, NE98%10000m1011hPa87%
29-Jun-2024 15:00Scattered Clouds12°C0 mph, N45%10000m1010hPa78%
29-Jun-2024 18:00Broken Clouds15°C2 mph, SW57%10000m1010hPa61%
29-Jun-2024 21:00Broken Clouds18°C4 mph, S68%10000m1009hPa56%
30-Jun-2024 00:00Broken Clouds20°C7 mph, S59%10000m1008hPa51%
30-Jun-2024 03:00Few Clouds19°C9 mph, SW14%10000m1008hPa53%
30-Jun-2024 06:00Clear Sky14°C7 mph, SW10%10000m1009hPa73%
30-Jun-2024 09:00Clear Sky10°C2 mph, S3%10000m1011hPa88%